Time;durP1;ratioP1;P1;durP2;ratioP2;P2;SDS_P1;SDS_P2;PMS_P1;PMS_P2;Temp;Humidity;BMP_temperature;BMP_pressure;BME280_temperature;BME280_humidity;BME280_pressure;Samples;Min_cycle;Max_cycle;Signal;HPM_P1;HPM_P2
2022/10/01 00:01:10;;;;;;;;;4.50;3.00;;;;;12.22;81.30;99920.25;5095747;27;45458;-81
2022/10/01 00:03:37;;;;;;;;;1.50;1.00;;;;;12.58;81.45;99970.16;5096896;27;45298;-80
2022/10/01 00:06:11;;;;;;;;;3.00;3.00;;;;;12.47;81.81;99946.69;5096230;27;45739;-80
2022/10/01 00:08:41;;;;;;;;;3.25;3.25;;;;;12.59;82.07;99954.19;5096431;27;45390;-80
2022/10/01 00:11:13;;;;;;;;;3.50;3.25;;;;;12.66;82.22;99965.41;5096876;27;45527;-80
2022/10/01 00:13:42;;;;;;;;;3.00;3.00;;;;;11.96;82.25;99841.75;5096347;27;45303;-80
2022/10/01 00:16:10;;;;;;;;;3.25;2.00;;;;;12.70;82.49;99952.91;5100372;27;46236;-80
2022/10/01 00:18:38;;;;;;;;;3.00;2.00;;;;;12.71;82.81;99973.22;5101331;27;45558;-81
2022/10/01 00:21:06;;;;;;;;;3.75;3.75;;;;;12.60;83.17;99928.53;5121393;27;45271;-81
2022/10/01 00:23:31;;;;;;;;;1.00;1.00;;;;;12.71;82.76;99954.66;5093711;27;45363;-80
2022/10/01 00:26:07;;;;;;;;;3.75;3.75;;;;;12.71;83.26;99946.69;5096113;27;46099;-80
2022/10/01 00:28:33;;;;;;;;;3.50;3.00;;;;;12.61;82.69;99894.00;5095928;27;45371;-80
2022/10/01 00:30:58;;;;;;;;;4.50;3.00;;;;;12.68;83.30;99909.66;5097599;27;45263;-81
2022/10/01 00:33:25;;;;;;;;;2.75;2.50;;;;;12.41;83.32;99854.19;5097508;27;45434;-80
2022/10/01 00:35:53;;;;;;;;;2.00;2.00;;;;;12.74;83.29;99893.53;5116323;27;45338;-80
2022/10/01 00:38:18;;;;;;;;;2.75;2.75;;;;;12.53;82.72;99872.25;5116670;27;45449;-80
2022/10/01 00:40:44;;;;;;;;;2.25;2.25;;;;;12.72;83.47;99914.81;5107584;27;45477;-81
2022/10/01 00:43:20;;;;;;;;;6.00;3.00;;;;;12.80;83.68;99938.38;5094620;27;45514;-80
2022/10/01 00:45:45;;;;;;;;;2.25;1.25;;;;;12.78;83.47;99925.19;5094478;27;45551;-80
2022/10/01 00:48:11;;;;;;;;;3.75;3.75;;;;;12.76;84.26;99926.16;5096547;27;45523;-81
2022/10/01 00:50:37;;;;;;;;;1.50;1.50;;;;;12.69;84.15;99911.41;5095296;27;45525;-80
2022/10/01 00:53:10;;;;;;;;;7.25;3.25;;;;;12.87;83.98;99934.53;5094498;27;45873;-80
2022/10/01 00:55:40;;;;;;;;;1.25;1.25;;;;;12.90;83.93;99928.25;5099114;27;46185;-79
2022/10/01 00:58:09;;;;;;;;;0.00;0.00;;;;;12.43;84.10;99861.16;5075166;28;45448;-80
2022/10/01 01:00:36;;;;;;;;;2.75;2.00;;;;;12.85;84.45;99924.94;5074534;28;45450;-80
2022/10/01 01:03:03;;;;;;;;;2.00;2.00;;;;;12.78;85.00;99916.34;5058065;27;45622;-81
2022/10/01 01:05:29;;;;;;;;;2.00;2.00;;;;;12.83;84.95;99919.69;5094295;27;45413;-81
2022/10/01 01:07:55;;;;;;;;;2.00;2.00;;;;;12.21;85.18;99815.22;5093573;27;45481;-81
2022/10/01 01:10:32;;;;;;;;;2.00;2.00;;;;;12.39;85.78;99834.81;5093081;27;45418;-80
2022/10/01 01:13:03;;;;;;;;;2.00;2.00;;;;;12.92;85.95;99926.41;5094469;27;45577;-80
2022/10/01 01:15:43;;;;;;;;;2.50;2.00;;;;;12.93;85.36;99928.13;5110209;27;45688;-81
2022/10/01 01:18:14;;;;;;;;;1.75;1.75;;;;;12.95;85.48;99945.72;5099510;27;45514;-81
2022/10/01 01:21:04;;;;;;;;;1.50;1.25;;;;;12.94;86.13;99922.78;5107774;27;45374;-81
2022/10/01 01:23:53;;;;;;;;;2.00;2.00;;;;;12.80;85.75;99909.22;5098254;27;45409;-80
2022/10/01 01:26:37;;;;;;;;;2.00;2.00;;;;;12.94;86.13;99922.78;5084217;27;46703;-80
2022/10/01 01:29:15;;;;;;;;;2.25;2.00;;;;;12.96;86.59;99923.56;5093940;27;45615;-80
2022/10/01 01:31:47;;;;;;;;;2.00;2.00;;;;;12.92;86.98;99914.03;5094723;27;45472;-81
2022/10/01 01:34:20;;;;;;;;;1.00;1.00;;;;;12.98;86.65;99921.72;5093881;27;45307;-80
2022/10/01 01:36:58;;;;;;;;;2.00;1.50;;;;;12.85;86.97;99878.06;5100900;27;45518;-80
2022/10/01 01:39:28;;;;;;;;;0.50;0.50;;;;;12.82;86.61;99875.53;5094346;27;45416;-81
2022/10/01 01:42:02;;;;;;;;;1.00;1.00;;;;;12.91;87.12;99879.59;5115504;27;45471;-81
2022/10/01 01:44:35;;;;;;;;;2.75;1.75;;;;;13.01;87.02;99883.59;5115693;27;45328;-81
2022/10/01 01:47:03;;;;;;;;;0.50;0.50;;;;;13.04;87.28;99893.22;5097087;27;46739;-81
2022/10/01 01:49:30;;;;;;;;;0.75;0.75;;;;;13.05;87.48;99895.81;5099793;27;45426;-80
2022/10/01 01:52:12;;;;;;;;;1.00;1.00;;;;;12.52;87.19;99798.94;5101562;27;45480;-80
2022/10/01 01:54:38;;;;;;;;;0.50;0.50;;;;;13.10;87.54;99896.50;5094774;27;45438;-80
2022/10/01 01:57:05;;;;;;;;;1.00;1.00;;;;;13.07;87.47;99883.38;5096442;27;45462;-80
2022/10/01 01:59:32;;;;;;;;;1.25;1.00;;;;;13.03;87.46;99867.63;5103196;27;45561;-79
2022/10/01 02:01:58;;;;;;;;;0.25;0.25;;;;;13.02;87.61;99866.75;5088630;27;45345;-81
2022/10/01 02:04:32;;;;;;;;;0.00;0.00;;;;;13.15;87.80;99883.03;5098090;27;45431;-79
2022/10/01 02:07:23;;;;;;;;;0.00;0.00;;;;;13.16;88.18;99868.81;5096018;27;46137;-81
2022/10/01 02:10:04;;;;;;;;;1.00;1.00;;;;;13.17;88.10;99885.63;5084218;27;45485;-79
2022/10/01 02:12:55;;;;;;;;;0.50;0.50;;;;;13.17;87.92;99886.47;5097605;27;45667;-81
2022/10/01 02:15:26;;;;;;;;;0.00;0.00;;;;;13.17;87.81;99881.19;5096921;27;45563;-80
2022/10/01 02:18:29;;;;;;;;;0.00;0.00;;;;;13.19;87.55;99868.69;5111693;27;46256;-80
2022/10/01 02:21:22;;;;;;;;;0.00;0.00;;;;;13.19;87.96;99868.69;5082629;27;45383;-79
2022/10/01 02:23:56;;;;;;;;;0.75;0.75;;;;;13.12;87.63;99869.91;5118652;27;45445;-80
2022/10/01 02:26:23;;;;;;;;;0.00;0.00;;;;;13.22;87.62;99863.25;5118091;27;45558;-80
2022/10/01 02:28:52;;;;;;;;;0.00;0.00;;;;;13.24;87.40;99865.84;5104730;27;45578;-82
2022/10/01 02:31:20;;;;;;;;;0.00;0.00;;;;;13.02;87.74;99815.50;5078901;27;45597;-80
2022/10/01 02:33:46;;;;;;;;;0.00;0.00;;;;;12.95;88.28;99818.41;5097078;27;45386;-80
2022/10/01 02:36:13;;;;;;;;;0.00;0.00;;;;;12.88;88.07;99763.88;5096648;27;45478;-80
2022/10/01 02:38:42;;;;;;;;;0.50;0.50;;;;;13.21;87.75;99847.41;5095675;27;45491;-81
2022/10/01 02:41:11;;;;;;;;;0.00;0.00;;;;;13.28;87.66;99857.69;5093691;27;45393;-79
2022/10/01 02:44:00;;;;;;;;;1.00;1.00;;;;;12.62;87.79;99741.97;5097640;27;45398;-80
2022/10/01 02:46:32;;;;;;;;;0.00;0.00;;;;;13.33;87.58;99858.41;5096423;27;45507;-80
2022/10/01 02:49:00;;;;;;;;;0.50;0.00;;;;;13.36;87.81;99861.84;5096196;27;45389;-80
2022/10/01 02:51:48;;;;;;;;;0.25;0.25;;;;;13.37;88.11;99856.47;5096124;27;45536;-79
2022/10/01 02:54:19;;;;;;;;;0.00;0.00;;;;;13.41;88.02;99849.25;5077677;27;45534;-79
2022/10/01 02:59:50;;;;;;;;;0.00;0.00;;;;;13.27;88.44;99805.56;5012564;28;46149;-80
2022/10/01 03:02:16;;;;;;;;;0.00;0.00;;;;;13.25;88.45;99804.75;5011598;28;45488;-80
2022/10/01 03:04:41;;;;;;;;;0.00;0.00;;;;;13.33;88.69;99805.34;5008018;28;45418;-80
2022/10/01 03:07:06;;;;;;;;;0.00;0.00;;;;;13.46;88.89;99828.69;5012752;28;48293;-80
2022/10/01 03:09:33;;;;;;;;;0.00;0.00;;;;;13.08;88.54;99751.56;4995307;28;45614;-80
2022/10/01 03:12:00;;;;;;;;;0.00;0.00;;;;;13.44;88.66;99798.69;5011114;28;45446;-80
2022/10/01 03:14:26;;;;;;;;;0.00;0.00;;;;;13.50;88.63;99806.38;5013444;28;45463;-81
2022/10/01 03:16:52;;;;;;;;;0.00;0.00;;;;;13.50;89.14;99798.44;4996503;28;45371;-81
2022/10/01 03:19:18;;;;;;;;;0.00;0.00;;;;;13.47;88.74;99809.19;5012017;28;45408;-80
2022/10/01 03:21:43;;;;;;;;;0.00;0.00;;;;;13.32;89.25;99773.53;5012272;28;45499;-79
2022/10/01 03:24:09;;;;;;;;;0.00;0.00;;;;;13.49;88.80;99809.97;5013755;28;45623;-80
2022/10/01 03:26:35;;;;;;;;;0.25;0.25;;;;;13.39;88.64;99796.25;5010463;28;45424;-80
2022/10/01 03:29:01;;;;;;;;;0.00;0.00;;;;;13.33;88.96;99775.25;5002133;28;45384;-80
2022/10/01 03:31:26;;;;;;;;;0.00;0.00;;;;;13.56;89.54;99814.09;5065811;27;45371;-80
2022/10/01 03:33:51;;;;;;;;;1.75;0.75;;;;;13.48;89.12;99806.47;5075594;28;45441;-81
2022/10/01 03:36:17;;;;;;;;;0.00;0.00;;;;;13.52;89.35;99798.34;5076455;28;45363;-80
2022/10/01 03:38:42;;;;;;;;;0.00;0.00;;;;;13.18;89.47;99757.31;5089824;27;45386;-80
2022/10/01 03:41:08;;;;;;;;;0.00;0.00;;;;;13.64;89.41;99819.91;5095544;27;45446;-80
2022/10/01 03:43:33;;;;;;;;;0.00;0.00;;;;;13.62;89.81;99812.91;5095679;27;45517;-81
2022/10/01 03:46:00;;;;;;;;;0.00;0.00;;;;;13.47;90.00;99782.63;5096402;27;45444;-80
2022/10/01 03:48:26;;;;;;;;;0.00;0.00;;;;;13.67;89.97;99817.09;5094610;27;45563;-80
2022/10/01 03:50:57;;;;;;;;;0.00;0.00;;;;;13.52;90.41;99788.59;5095476;27;45577;-80
2022/10/01 03:53:24;;;;;;;;;0.00;0.00;;;;;13.46;90.43;99767.63;5096175;27;45574;-81
2022/10/01 03:55:49;;;;;;;;;0.00;0.00;;;;;13.76;90.03;99833.56;5098539;27;45401;-79
2022/10/01 03:58:15;;;;;;;;;0.00;0.00;;;;;13.77;90.76;99819.34;5086437;27;45611;-80
2022/10/01 04:00:43;;;;;;;;;0.00;0.00;;;;;13.37;90.61;99766.25;5075099;28;45514;-79
2022/10/01 04:03:08;;;;;;;;;0.00;0.00;;;;;13.37;91.52;99770.69;5090117;27;45405;-81
2022/10/01 04:05:33;;;;;;;;;0.00;0.00;;;;;13.80;91.79;99837.78;5076912;27;45648;-81
2022/10/01 04:07:59;;;;;;;;;5.75;4.25;;;;;13.18;91.32;99731.69;5076511;27;46928;-79
2022/10/01 04:10:25;;;;;;;;;0.75;0.00;;;;;13.70;91.70;99831.19;5077588;27;45385;-80
2022/10/01 04:12:50;;;;;;;;;0.00;0.00;;;;;13.75;91.39;99840.66;5122284;27;45204;-79
2022/10/01 04:15:16;;;;;;;;;0.00;0.00;;;;;13.30;91.67;99765.63;5129715;27;45369;-80
2022/10/01 04:17:41;;;;;;;;;1.25;1.25;;;;;13.75;91.52;99850.44;5105682;27;45559;-80
2022/10/01 04:20:07;;;;;;;;;0.00;0.00;;;;;13.91;91.60;99867.41;5095295;27;45552;-81
2022/10/01 04:22:38;;;;;;;;;1.00;0.75;;;;;13.86;91.98;99862.31;5086618;27;45414;-80
2022/10/01 04:25:04;;;;;;;;;0.25;0.00;;;;;13.95;92.40;99874.31;5080986;27;45437;-80
2022/10/01 04:27:29;;;;;;;;;0.00;0.00;;;;;13.96;92.79;99886.66;5086429;27;45877;-79
2022/10/01 04:29:54;;;;;;;;;0.00;0.00;;;;;13.97;92.93;99893.69;5095817;27;45331;-80
2022/10/01 04:32:20;;;;;;;;;0.00;0.00;;;;;13.91;92.92;99878.03;5094992;27;45433;-80
2022/10/01 04:34:51;;;;;;;;;0.00;0.00;;;;;14.00;93.13;99885.59;5095339;27;45381;-80
2022/10/01 04:37:17;;;;;;;;;1.00;0.00;;;;;13.48;93.60;99801.16;5095150;27;45524;-80
2022/10/01 04:39:43;;;;;;;;;0.25;0.25;;;;;13.92;93.08;99868.25;5093294;27;45483;-80
2022/10/01 04:42:12;;;;;;;;;0.00;0.00;;;;;13.72;92.92;99834.63;5100367;27;45380;-80
2022/10/01 04:44:37;;;;;;;;;0.00;0.00;;;;;14.07;93.77;99890.63;5094851;27;45608;-80
2022/10/01 04:47:03;;;;;;;;;3.75;2.00;;;;;14.16;93.20;99898.16;5055612;28;48224;-80
2022/10/01 04:49:29;;;;;;;;;0.00;0.00;;;;;14.18;93.25;99912.25;5074468;28;45305;-80
2022/10/01 04:51:55;;;;;;;;;0.00;0.00;;;;;13.75;93.26;99834.50;5084676;27;45564;-81
2022/10/01 04:54:20;;;;;;;;;0.00;0.00;;;;;14.16;92.97;99903.50;5098284;27;48589;-82
2022/10/01 04:56:45;;;;;;;;;0.00;0.00;;;;;14.27;92.99;99922.47;5095079;27;45695;-81
2022/10/01 04:59:11;;;;;;;;;0.25;0.25;;;;;14.21;92.72;99917.41;5112902;27;45529;-82
2022/10/01 05:01:36;;;;;;;;;0.25;0.25;;;;;14.17;92.28;99911.38;5117944;27;45365;-81
2022/10/01 05:04:02;;;;;;;;;0.00;0.00;;;;;14.32;93.01;99930.25;5097039;27;45495;-82
2022/10/01 05:06:27;;;;;;;;;1.00;1.00;;;;;14.29;92.60;99920.59;5096184;27;45343;-82
2022/10/01 05:08:52;;;;;;;;;0.00;0.00;;;;;14.25;92.08;99910.19;5095024;27;45573;-82
2022/10/01 05:11:18;;;;;;;;;0.00;0.00;;;;;14.29;92.03;99931.25;5077370;27;45492;-82
2022/10/01 05:13:43;;;;;;;;;0.00;0.00;;;;;14.24;92.31;99911.97;5112486;27;45451;-82
2022/10/01 05:16:09;;;;;;;;;0.00;0.00;;;;;14.24;91.91;99904.00;5095049;27;46169;-83
2022/10/01 05:18:34;;;;;;;;;0.00;0.00;;;;;14.30;92.08;99924.13;5093701;27;45329;-82
2022/10/01 05:21:04;;;;;;;;;0.00;0.00;;;;;14.33;92.46;99930.16;5081044;27;45305;-81
2022/10/01 05:23:29;;;;;;;;;1.75;1.75;;;;;14.42;91.65;99959.91;5098582;27;45408;-82
2022/10/01 05:25:55;;;;;;;;;0.00;0.00;;;;;14.40;91.85;99950.19;5100535;27;45446;-81
2022/10/01 05:28:20;;;;;;;;;0.00;0.00;;;;;14.08;92.02;99900.31;5097731;27;45382;-80
2022/10/01 05:30:46;;;;;;;;;0.00;0.00;;;;;14.36;92.11;99937.13;5076685;27;45400;-83
2022/10/01 05:33:11;;;;;;;;;0.00;0.00;;;;;14.47;91.72;99958.78;5079978;27;45320;-82
2022/10/01 05:35:36;;;;;;;;;0.00;0.00;;;;;13.88;91.76;99862.22;5100008;27;46016;-83
2022/10/01 05:38:02;;;;;;;;;0.00;0.00;;;;;14.49;91.89;99972.84;5102078;27;45437;-82
2022/10/01 05:40:29;;;;;;;;;0.00;0.00;;;;;14.52;91.74;99971.88;5100480;27;45380;-82
2022/10/01 05:42:57;;;;;;;;;1.00;0.00;;;;;14.48;91.82;99967.59;5099485;27;45556;-82
2022/10/01 05:45:22;;;;;;;;;0.00;0.00;;;;;14.56;91.96;99981.41;5100904;27;45554;-82
2022/10/01 05:47:55;;;;;;;;;0.00;0.00;;;;;14.58;91.29;99987.53;5102717;27;45485;-82
2022/10/01 05:50:20;;;;;;;;;0.00;0.00;;;;;14.60;90.86;100004.28;5085617;27;45429;-83
2022/10/01 05:52:51;;;;;;;;;3.00;1.75;;;;;14.61;91.16;99999.88;5098418;27;45453;-82
2022/10/01 05:55:17;;;;;;;;;1.50;0.00;;;;;14.63;91.08;100006.81;5098171;27;47074;-83
2022/10/01 05:57:43;;;;;;;;;1.00;1.00;;;;;14.58;91.13;99999.03;5118456;27;45439;-82
2022/10/01 06:00:09;;;;;;;;;0.00;0.00;;;;;14.52;91.10;99985.16;5112765;27;45480;-82
2022/10/01 06:02:34;;;;;;;;;1.00;1.00;;;;;14.69;90.68;100008.34;5097977;27;45496;-80
2022/10/01 06:04:59;;;;;;;;;1.00;1.00;;;;;14.70;90.53;100016.25;5098192;27;45412;-80
2022/10/01 06:07:25;;;;;;;;;2.00;0.00;;;;;14.52;90.63;99991.31;5118315;27;45396;-82
2022/10/01 06:09:50;;;;;;;;;1.00;1.00;;;;;14.70;90.16;100018.91;5090729;27;45365;-80
2022/10/01 06:12:16;;;;;;;;;1.00;0.00;;;;;14.69;89.59;100030.47;5100066;27;45498;-80
2022/10/01 06:14:41;;;;;;;;;0.25;0.25;;;;;14.76;89.22;100041.72;5098522;27;45412;-81
2022/10/01 06:17:07;;;;;;;;;0.50;0.50;;;;;14.46;88.97;100001.38;5097640;27;45356;-80
2022/10/01 06:19:32;;;;;;;;;0.00;0.00;;;;;14.01;88.92;99932.50;5098703;27;45649;-82
2022/10/01 06:21:57;;;;;;;;;0.00;0.00;;;;;14.82;88.89;100053.84;5097265;27;45365;-81
2022/10/01 06:24:24;;;;;;;;;0.00;0.00;;;;;14.43;88.69;99990.91;5094245;27;46240;-82
2022/10/01 06:26:50;;;;;;;;;0.00;0.00;;;;;14.73;88.88;100033.88;5098909;27;45565;-82
2022/10/01 06:29:15;;;;;;;;;0.25;0.25;;;;;14.86;88.48;100058.09;5098556;27;45353;-81
2022/10/01 06:31:40;;;;;;;;;1.00;0.00;;;;;14.48;87.93;99999.50;5095272;27;45355;-81
2022/10/01 06:34:06;;;;;;;;;0.00;0.00;;;;;14.75;87.25;100046.16;5099926;27;45602;-82
2022/10/01 06:36:32;;;;;;;;;1.00;1.00;;;;;14.29;86.93;99960.47;5091915;27;45512;-82
2022/10/01 06:38:58;;;;;;;;;0.25;0.25;;;;;14.63;86.68;100004.16;5090850;27;45568;-82
2022/10/01 06:41:23;;;;;;;;;0.00;0.00;;;;;14.97;85.89;100066.47;5095974;27;45507;-80
2022/10/01 06:43:52;;;;;;;;;0.25;0.25;;;;;14.56;85.66;99995.59;5077662;27;47856;-82
2022/10/01 06:46:17;;;;;;;;;1.75;1.00;;;;;15.03;84.87;100078.59;5082410;27;45422;-81
2022/10/01 06:48:42;;;;;;;;;0.00;0.00;;;;;14.46;85.05;99994.25;5097035;27;45863;-80
2022/10/01 06:51:08;;;;;;;;;0.00;0.00;;;;;15.09;84.74;100080.97;5095999;27;45382;-80
2022/10/01 06:53:33;;;;;;;;;0.00;0.00;;;;;15.13;85.15;100065.75;5097077;27;46071;-79
2022/10/01 06:56:04;;;;;;;;;1.00;1.00;;;;;15.00;85.22;100060.13;5097704;27;45499;-81
2022/10/01 06:58:30;;;;;;;;;1.00;1.00;;;;;14.89;85.14;100040.22;5097737;27;45330;-80
2022/10/01 07:01:00;;;;;;;;;2.00;1.00;;;;;15.18;85.15;100077.03;5080538;27;45391;-81
2022/10/01 07:03:25;;;;;;;;;0.50;0.00;;;;;15.22;85.17;100086.63;5103665;27;45528;-80
2022/10/01 07:05:51;;;;;;;;;0.00;0.00;;;;;14.60;84.90;99983.00;5101594;27;45462;-82
2022/10/01 07:08:17;;;;;;;;;0.00;0.00;;;;;15.28;84.74;100095.16;5108993;27;45445;-80
2022/10/01 07:10:43;;;;;;;;;0.00;0.00;;;;;15.11;84.36;100068.50;5090211;27;45628;-82
2022/10/01 07:13:16;;;;;;;;;0.25;0.00;;;;;15.37;84.23;100091.22;5099920;27;45477;-82
2022/10/01 07:15:42;;;;;;;;;0.25;0.25;;;;;14.84;83.92;100014.75;5099571;27;45539;-83
2022/10/01 07:18:08;;;;;;;;;0.50;0.50;;;;;15.45;83.24;100107.66;5100211;27;45460;-82
2022/10/01 07:20:38;;;;;;;;;0.00;0.00;;;;;15.39;83.09;100104.44;5091405;27;45312;-80
2022/10/01 07:23:04;;;;;;;;;0.00;0.00;;;;;15.37;83.11;100096.53;5082204;27;45280;-81
2022/10/01 07:25:30;;;;;;;;;1.00;0.00;;;;;15.54;82.83;100114.38;5099148;27;45446;-81
2022/10/01 07:27:58;;;;;;;;;0.00;0.00;;;;;15.58;82.45;100123.09;5093490;27;45555;-82
2022/10/01 07:30:24;;;;;;;;;2.00;1.00;;;;;15.51;82.19;100119.00;5080399;27;45515;-84
2022/10/01 07:32:50;;;;;;;;;0.50;0.00;;;;;15.60;82.29;100131.84;5097492;27;46317;-81
2022/10/01 07:35:19;;;;;;;;;1.25;0.00;;;;;15.55;82.16;100136.56;5098168;27;45358;-82
2022/10/01 07:37:49;;;;;;;;;0.00;0.00;;;;;15.09;81.12;100062.34;5094036;27;45472;-83
2022/10/01 07:40:15;;;;;;;;;0.25;0.25;;;;;15.22;81.12;100084.81;5079299;27;45552;-84
2022/10/01 07:42:41;;;;;;;;;1.75;1.00;;;;;15.59;80.65;100154.09;5099877;27;46326;-80
2022/10/01 07:45:07;;;;;;;;;1.00;1.00;;;;;15.63;80.13;100140.56;5096986;27;45407;-80
2022/10/01 07:47:33;;;;;;;;;0.00;0.00;;;;;15.54;79.71;100135.66;5101190;27;45476;-79
2022/10/01 07:49:58;;;;;;;;;0.00;0.00;;;;;15.68;79.13;100153.66;5071525;27;45449;-79
2022/10/01 07:52:24;;;;;;;;;1.00;1.00;;;;;15.20;78.68;100086.69;5094732;27;45448;-83
2022/10/01 07:54:49;;;;;;;;;2.00;1.25;;;;;15.05;78.18;100048.34;5100081;27;45391;-84
2022/10/01 07:57:15;;;;;;;;;2.00;1.00;;;;;15.49;77.89;100126.16;5080132;27;45560;-81
2022/10/01 07:59:40;;;;;;;;;1.00;1.00;;;;;15.57;77.20;100140.84;5080096;27;45619;-79
2022/10/01 08:02:16;;;;;;;;;0.25;0.25;;;;;15.69;76.49;100155.38;5102152;27;45375;-79
2022/10/01 08:07:25;;;;;;;;;4.75;3.00;;;;;15.90;75.62;100177.50;5093743;27;45504;-79
2022/10/01 08:09:51;;;;;;;;;7.50;3.50;;;;;15.92;74.41;100172.09;5095807;27;45328;-79
2022/10/01 08:12:18;;;;;;;;;4.50;1.25;;;;;15.88;73.86;100133.22;5075429;27;46764;-79
2022/10/01 08:14:44;;;;;;;;;2.00;0.00;;;;;16.19;73.66;100163.69;5091232;27;45596;-81
2022/10/01 08:17:10;;;;;;;;;2.00;2.00;;;;;16.17;71.89;100132.63;5097136;27;45466;-80
2022/10/01 08:19:35;;;;;;;;;3.50;1.00;;;;;16.64;71.51;100179.16;5094635;27;45476;-80
2022/10/01 08:22:01;;;;;;;;;0.00;0.00;;;;;16.17;70.20;100092.66;5094537;27;46049;-80
2022/10/01 08:24:26;;;;;;;;;4.75;1.50;;;;;16.86;69.69;100191.41;5075817;27;45426;-80
2022/10/01 08:26:54;;;;;;;;;2.00;2.00;;;;;16.92;69.43;100200.94;5095905;27;45333;-80
2022/10/01 08:29:20;;;;;;;;;0.00;0.00;;;;;16.97;69.04;100198.88;5094975;27;45509;-78
2022/10/01 08:31:45;;;;;;;;;1.00;1.00;;;;;16.93;69.07;100194.63;5094486;27;46309;-79
2022/10/01 08:34:11;;;;;;;;;3.00;1.00;;;;;16.75;69.12;100172.44;5096856;27;45371;-80
2022/10/01 08:36:36;;;;;;;;;2.50;1.75;;;;;16.82;68.83;100198.72;5111582;27;45491;-80
2022/10/01 08:39:02;;;;;;;;;1.00;1.00;;;;;16.81;68.83;100196.97;5106729;27;45482;-80
2022/10/01 08:41:45;;;;;;;;;2.50;1.00;;;;;16.82;69.20;100217.41;5096150;27;46389;-80
2022/10/01 08:44:20;;;;;;;;;3.00;2.00;;;;;16.77;69.02;100216.75;5095830;27;45571;-78
2022/10/01 08:46:46;;;;;;;;;3.75;1.00;;;;;16.80;69.41;100227.25;5097753;27;45695;-79
2022/10/01 08:49:19;;;;;;;;;1.75;1.75;;;;;16.88;69.26;100232.22;5115526;27;45480;-77
2022/10/01 08:52:20;;;;;;;;;0.75;0.75;;;;;16.95;69.20;100227.47;5092645;27;46360;-79
2022/10/01 08:54:59;;;;;;;;;3.50;1.00;;;;;16.95;69.47;100227.47;5073079;27;45562;-79
2022/10/01 08:57:30;;;;;;;;;3.00;1.00;;;;;17.07;69.05;100234.81;5074789;28;45432;-79
2022/10/01 09:00:03;;;;;;;;;0.50;0.00;;;;;17.23;69.25;100250.88;5076359;28;45256;-80
2022/10/01 09:02:32;;;;;;;;;1.00;0.00;;;;;17.34;69.22;100244.97;5092346;27;47067;-80
2022/10/01 09:05:05;;;;;;;;;3.75;2.50;;;;;17.42;69.19;100252.59;5094968;27;45360;-80
2022/10/01 09:08:08;;;;;;;;;0.75;0.75;;;;;17.63;68.48;100255.91;5094181;27;45390;-80
2022/10/01 09:10:44;;;;;;;;;0.75;0.75;;;;;17.68;68.29;100252.03;5095222;27;45351;-80
2022/10/01 09:13:41;;;;;;;;;1.00;1.00;;;;;17.79;68.16;100261.28;5095744;27;45401;-81
2022/10/01 09:16:40;;;;;;;;;1.00;1.00;;;;;17.91;68.22;100261.47;5076300;27;45424;-80
2022/10/01 09:19:28;;;;;;;;;0.00;0.00;;;;;17.85;67.67;100229.72;5076244;27;45516;-81
2022/10/01 09:22:04;;;;;;;;;2.00;1.00;;;;;18.00;67.76;100264.59;5092747;27;45431;-81
2022/10/01 09:24:30;;;;;;;;;1.00;1.00;;;;;18.07;67.63;100266.00;5064135;28;47979;-80
2022/10/01 09:26:56;;;;;;;;;3.75;1.00;;;;;17.91;67.79;100256.13;5074892;28;45398;-81
2022/10/01 09:29:34;;;;;;;;;2.25;2.00;;;;;17.73;67.34;100219.72;5094933;27;45570;-81
2022/10/01 09:32:04;;;;;;;;;1.00;1.00;;;;;17.84;67.30;100249.41;5084419;27;45597;-79
2022/10/01 09:34:39;;;;;;;;;1.00;1.00;;;;;18.03;66.68;100269.78;5093063;27;46447;-81
2022/10/01 09:37:14;;;;;;;;;2.75;1.50;;;;;18.04;66.83;100284.88;5096349;27;45364;-80
2022/10/01 09:40:11;;;;;;;;;3.00;2.75;;;;;18.03;66.33;100283.16;5093213;27;45358;-83
2022/10/01 09:42:37;;;;;;;;;0.00;0.00;;;;;17.59;66.22;100233.84;5092233;27;45387;-82
2022/10/01 09:45:03;;;;;;;;;1.00;1.00;;;;;17.66;66.31;100263.75;5093131;27;45521;-82
2022/10/01 09:47:32;;;;;;;;;1.00;0.75;;;;;17.30;66.73;100200.69;5092385;27;45325;-83
2022/10/01 09:50:02;;;;;;;;;1.50;1.50;;;;;17.47;66.37;100226.50;5073057;27;45549;-82
2022/10/01 09:52:37;;;;;;;;;3.00;1.00;;;;;17.93;66.47;100289.00;5087843;27;45468;-81
2022/10/01 09:55:18;;;;;;;;;3.00;2.00;;;;;18.07;66.40;100292.75;5091835;27;46411;-81
2022/10/01 09:57:49;;;;;;;;;4.25;2.50;;;;;17.92;65.45;100271.25;5102599;27;45393;-81
2022/10/01 10:00:20;;;;;;;;;1.50;1.50;;;;;18.14;64.49;100293.25;5111831;27;45526;-81
2022/10/01 10:02:50;;;;;;;;;2.00;1.00;;;;;18.15;64.88;100311.88;5090818;27;45316;-82
2022/10/01 10:05:26;;;;;;;;;1.75;1.25;;;;;17.87;63.85;100254.56;5113081;27;45749;-79
2022/10/01 10:07:56;;;;;;;;;2.50;1.00;;;;;18.11;63.35;100286.25;5094899;27;45444;-78
2022/10/01 10:10:23;;;;;;;;;3.50;1.00;;;;;18.43;63.52;100316.56;5094916;27;45332;-78
2022/10/01 10:12:55;;;;;;;;;5.25;2.50;;;;;18.25;63.93;100275.66;5076252;27;45382;-79
2022/10/01 10:15:25;;;;;;;;;2.75;2.50;;;;;18.43;63.03;100272.84;5100421;27;45380;-80
2022/10/01 10:17:51;;;;;;;;;1.50;1.25;;;;;18.92;62.16;100333.44;5079404;27;45617;-88
2022/10/01 10:20:27;;;;;;;;;3.00;2.00;;;;;19.03;61.43;100320.25;5083725;27;45542;-82
2022/10/01 10:22:53;;;;;;;;;3.25;2.00;;;;;19.06;60.36;100316.56;5100262;27;45365;-81
2022/10/01 10:25:23;;;;;;;;;1.00;1.00;;;;;19.25;59.89;100309.16;5080525;27;47913;-82
2022/10/01 10:27:54;;;;;;;;;5.00;1.00;;;;;19.34;59.58;100300.53;5077347;27;45481;-81
2022/10/01 10:30:25;;;;;;;;;2.50;0.75;;;;;19.70;59.27;100333.19;5096207;27;45579;-82
2022/10/01 10:32:53;;;;;;;;;1.00;1.00;;;;;19.74;57.76;100312.41;5089844;27;45434;-77
2022/10/01 10:35:24;;;;;;;;;1.00;1.00;;;;;19.97;57.47;100338.69;5098042;27;45497;-79
2022/10/01 10:37:56;;;;;;;;;2.50;1.00;;;;;20.08;57.34;100337.16;5096924;27;45493;-78
2022/10/01 10:40:24;;;;;;;;;1.50;1.25;;;;;20.00;56.41;100300.94;5097323;27;45381;-79
2022/10/01 10:42:53;;;;;;;;;1.00;1.00;;;;;20.24;55.70;100343.28;5099684;27;45493;-83
2022/10/01 10:45:28;;;;;;;;;2.00;2.00;;;;;20.31;55.53;100344.59;5099109;27;46426;-82
2022/10/01 10:47:54;;;;;;;;;2.50;2.00;;;;;20.45;55.09;100345.53;5084448;27;45478;-81
2022/10/01 10:50:46;;;;;;;;;1.50;1.00;;;;;20.64;54.36;100326.41;5095866;27;45511;-81
2022/10/01 10:53:23;;;;;;;;;4.00;1.00;;;;;20.60;54.74;100341.81;5058103;27;46076;-81
2022/10/01 10:56:02;;;;;;;;;3.00;1.00;;;;;20.60;53.64;100336.47;5078777;28;45490;-82
2022/10/01 10:58:33;;;;;;;;;1.25;1.25;;;;;20.73;53.59;100348.16;5070313;27;45391;-78
2022/10/01 11:01:12;;;;;;;;;1.75;1.75;;;;;20.79;53.85;100349.56;5088507;27;45579;-78
2022/10/01 11:03:46;;;;;;;;;3.25;2.00;;;;;20.66;53.42;100317.28;5099595;27;45484;-77
2022/10/01 11:06:13;;;;;;;;;3.00;2.00;;;;;20.79;53.43;100364.84;5096734;27;46239;-78
2022/10/01 11:08:41;;;;;;;;;0.75;0.75;;;;;20.64;53.34;100367.53;5102219;27;45397;-77
2022/10/01 11:11:19;;;;;;;;;0.50;0.50;;;;;20.58;54.07;100365.25;5083790;27;45448;-82
2022/10/01 11:14:11;;;;;;;;;3.00;1.25;;;;;20.55;54.28;100376.19;5080280;27;45495;-83
2022/10/01 11:17:17;;;;;;;;;3.00;2.00;;;;;20.54;53.90;100369.06;5083693;27;46582;-79
2022/10/01 11:19:42;;;;;;;;;2.00;1.25;;;;;20.50;53.80;100383.69;5099288;27;45393;-78
2022/10/01 11:22:35;;;;;;;;;1.25;1.00;;;;;20.36;53.94;100377.38;5095343;27;45433;-79
2022/10/01 11:25:18;;;;;;;;;2.50;2.50;;;;;20.34;54.01;100375.72;5097079;27;45457;-79
2022/10/01 11:28:04;;;;;;;;;0.00;0.00;;;;;20.18;54.38;100357.94;5095804;27;46141;-78
2022/10/01 11:30:52;;;;;;;;;1.00;1.00;;;;;20.03;53.81;100346.34;5086583;27;45485;-79
2022/10/01 11:33:37;;;;;;;;;1.00;1.00;;;;;20.10;53.69;100364.75;5082192;27;45482;-80
2022/10/01 11:36:08;;;;;;;;;1.00;1.00;;;;;20.08;53.56;100377.41;5075586;27;45462;-82
2022/10/01 11:38:47;;;;;;;;;1.00;0.75;;;;;19.96;52.99;100368.28;5093067;27;46136;-83
2022/10/01 11:41:53;;;;;;;;;2.00;1.75;;;;;20.28;53.26;100374.28;5081377;27;45478;-82
2022/10/01 11:44:31;;;;;;;;;1.50;1.00;;;;;20.33;52.75;100356.09;5092308;27;45580;-83
2022/10/01 11:47:12;;;;;;;;;2.25;1.50;;;;;20.64;52.43;100386.31;5095683;27;45552;-82
2022/10/01 11:49:58;;;;;;;;;2.00;2.00;;;;;20.85;52.00;100391.28;5105924;27;46259;-83